sensor_id;sensor_type;location;lat;lon;timestamp;P1;durP1;ratioP1;P2;durP2;ratioP2
71639;SDS011;60912;48.968;10.124;2022-09-23T00:01:56;9.10;;;4.70;;
71639;SDS011;60912;48.968;10.124;2022-09-23T00:04:22;10.00;;;4.80;;
71639;SDS011;60912;48.968;10.124;2022-09-23T00:06:47;8.68;;;4.70;;
71639;SDS011;60912;48.968;10.124;2022-09-23T00:09:13;8.33;;;4.90;;
71639;SDS011;60912;48.968;10.124;2022-09-23T00:11:38;8.47;;;4.63;;
71639;SDS011;60912;48.968;10.124;2022-09-23T00:14:04;8.73;;;5.07;;
71639;SDS011;60912;48.968;10.124;2022-09-23T00:16:30;13.23;;;5.10;;
71639;SDS011;60912;48.968;10.124;2022-09-23T00:18:58;10.02;;;5.40;;
71639;SDS011;60912;48.968;10.124;2022-09-23T00:21:25;9.83;;;5.77;;
71639;SDS011;60912;48.968;10.124;2022-09-23T00:23:50;11.20;;;5.13;;
71639;SDS011;60912;48.968;10.124;2022-09-23T00:26:17;8.47;;;4.90;;
71639;SDS011;60912;48.968;10.124;2022-09-23T00:28:44;8.50;;;5.10;;
71639;SDS011;60912;48.968;10.124;2022-09-23T00:31:12;7.68;;;4.82;;
71639;SDS011;60912;48.968;10.124;2022-09-23T00:33:39;7.68;;;4.95;;
71639;SDS011;60912;48.968;10.124;2022-09-23T00:36:05;7.80;;;4.80;;
71639;SDS011;60912;48.968;10.124;2022-09-23T00:38:35;8.73;;;5.13;;
71639;SDS011;60912;48.968;10.124;2022-09-23T00:41:01;9.40;;;4.65;;
71639;SDS011;60912;48.968;10.124;2022-09-23T00:46:02;10.23;;;4.70;;
71639;SDS011;60912;48.968;10.124;2022-09-23T00:48:27;10.10;;;4.80;;
71639;SDS011;60912;48.968;10.124;2022-09-23T00:50:53;7.00;;;4.40;;
71639;SDS011;60912;48.968;10.124;2022-09-23T00:53:20;11.18;;;5.22;;
71639;SDS011;60912;48.968;10.124;2022-09-23T00:55:54;9.15;;;5.47;;
71639;SDS011;60912;48.968;10.124;2022-09-23T00:58:26;10.63;;;6.10;;
71639;SDS011;60912;48.968;10.124;2022-09-23T01:00:55;8.83;;;5.10;;
71639;SDS011;60912;48.968;10.124;2022-09-23T01:03:23;10.27;;;5.60;;
71639;SDS011;60912;48.968;10.124;2022-09-23T01:05:49;9.75;;;5.47;;
71639;SDS011;60912;48.968;10.124;2022-09-23T01:08:15;8.13;;;5.20;;
71639;SDS011;60912;48.968;10.124;2022-09-23T01:13:13;8.90;;;5.15;;
71639;SDS011;60912;48.968;10.124;2022-09-23T01:34:55;9.85;;;5.32;;
71639;SDS011;60912;48.968;10.124;2022-09-23T01:42:46;9.32;;;5.05;;
71639;SDS011;60912;48.968;10.124;2022-09-23T01:48:13;10.18;;;5.50;;
71639;SDS011;60912;48.968;10.124;2022-09-23T01:50:50;8.98;;;4.88;;
71639;SDS011;60912;48.968;10.124;2022-09-23T01:55:57;9.65;;;4.35;;
71639;SDS011;60912;48.968;10.124;2022-09-23T01:58:33;9.50;;;4.87;;
71639;SDS011;60912;48.968;10.124;2022-09-23T02:01:06;7.90;;;4.65;;
71639;SDS011;60912;48.968;10.124;2022-09-23T02:03:33;7.22;;;4.65;;
71639;SDS011;60912;48.968;10.124;2022-09-23T02:06:23;7.25;;;4.57;;
71639;SDS011;60912;48.968;10.124;2022-09-23T02:08:54;7.25;;;4.30;;
71639;SDS011;60912;48.968;10.124;2022-09-23T02:11:24;10.60;;;4.77;;
71639;SDS011;60912;48.968;10.124;2022-09-23T02:18:58;7.05;;;4.38;;
71639;SDS011;60912;48.968;10.124;2022-09-23T02:21:34;7.68;;;4.10;;
71639;SDS011;60912;48.968;10.124;2022-09-23T02:24:04;7.88;;;4.50;;
71639;SDS011;60912;48.968;10.124;2022-09-23T02:27:10;7.60;;;4.40;;
71639;SDS011;60912;48.968;10.124;2022-09-23T02:37:35;8.48;;;4.03;;
71639;SDS011;60912;48.968;10.124;2022-09-23T02:45:47;5.95;;;3.70;;
71639;SDS011;60912;48.968;10.124;2022-09-23T02:48:24;8.70;;;4.05;;
71639;SDS011;60912;48.968;10.124;2022-09-23T02:50:52;6.43;;;3.50;;
71639;SDS011;60912;48.968;10.124;2022-09-23T02:53:18;7.03;;;3.77;;
71639;SDS011;60912;48.968;10.124;2022-09-23T02:55:46;6.88;;;3.83;;
71639;SDS011;60912;48.968;10.124;2022-09-23T02:58:11;8.03;;;4.33;;
71639;SDS011;60912;48.968;10.124;2022-09-23T03:00:42;8.35;;;4.25;;
71639;SDS011;60912;48.968;10.124;2022-09-23T03:03:19;8.35;;;3.75;;
71639;SDS011;60912;48.968;10.124;2022-09-23T03:05:55;9.38;;;3.88;;
71639;SDS011;60912;48.968;10.124;2022-09-23T03:11:26;8.00;;;4.50;;
71639;SDS011;60912;48.968;10.124;2022-09-23T03:22:12;8.50;;;4.18;;
71639;SDS011;60912;48.968;10.124;2022-09-23T03:25:04;7.88;;;4.40;;
71639;SDS011;60912;48.968;10.124;2022-09-23T03:27:34;7.70;;;4.45;;
71639;SDS011;60912;48.968;10.124;2022-09-23T03:30:01;7.20;;;3.93;;
71639;SDS011;60912;48.968;10.124;2022-09-23T03:32:28;7.47;;;4.22;;
71639;SDS011;60912;48.968;10.124;2022-09-23T03:34:56;8.00;;;4.18;;
71639;SDS011;60912;48.968;10.124;2022-09-23T03:40:22;7.20;;;4.05;;
71639;SDS011;60912;48.968;10.124;2022-09-23T03:42:48;9.40;;;4.67;;
71639;SDS011;60912;48.968;10.124;2022-09-23T03:45:15;6.70;;;4.20;;
71639;SDS011;60912;48.968;10.124;2022-09-23T03:47:44;7.83;;;4.00;;
71639;SDS011;60912;48.968;10.124;2022-09-23T03:50:10;7.72;;;4.10;;
71639;SDS011;60912;48.968;10.124;2022-09-23T03:52:37;7.70;;;4.53;;
71639;SDS011;60912;48.968;10.124;2022-09-23T03:55:04;10.35;;;4.85;;
71639;SDS011;60912;48.968;10.124;2022-09-23T03:57:30;10.13;;;4.68;;
71639;SDS011;60912;48.968;10.124;2022-09-23T03:59:55;8.73;;;4.90;;
71639;SDS011;60912;48.968;10.124;2022-09-23T04:02:21;11.10;;;5.03;;
71639;SDS011;60912;48.968;10.124;2022-09-23T04:04:46;8.10;;;4.73;;
71639;SDS011;60912;48.968;10.124;2022-09-23T04:07:12;8.10;;;4.83;;
71639;SDS011;60912;48.968;10.124;2022-09-23T04:09:38;8.67;;;4.83;;
71639;SDS011;60912;48.968;10.124;2022-09-23T04:12:03;9.95;;;5.35;;
71639;SDS011;60912;48.968;10.124;2022-09-23T04:14:29;8.80;;;4.67;;
71639;SDS011;60912;48.968;10.124;2022-09-23T04:16:55;9.18;;;4.68;;
71639;SDS011;60912;48.968;10.124;2022-09-23T04:19:20;8.43;;;4.50;;
71639;SDS011;60912;48.968;10.124;2022-09-23T04:21:46;7.55;;;4.00;;
71639;SDS011;60912;48.968;10.124;2022-09-23T04:24:12;8.63;;;4.47;;
71639;SDS011;60912;48.968;10.124;2022-09-23T04:26:38;7.53;;;4.00;;
71639;SDS011;60912;48.968;10.124;2022-09-23T04:29:04;8.23;;;4.17;;
71639;SDS011;60912;48.968;10.124;2022-09-23T04:31:30;6.70;;;4.17;;
71639;SDS011;60912;48.968;10.124;2022-09-23T04:33:56;8.98;;;4.25;;
71639;SDS011;60912;48.968;10.124;2022-09-23T04:36:22;8.00;;;4.10;;
71639;SDS011;60912;48.968;10.124;2022-09-23T04:38:48;8.13;;;4.33;;
71639;SDS011;60912;48.968;10.124;2022-09-23T04:41:15;8.40;;;4.43;;
71639;SDS011;60912;48.968;10.124;2022-09-23T04:43:41;8.63;;;4.43;;
71639;SDS011;60912;48.968;10.124;2022-09-23T04:46:07;7.33;;;4.03;;
71639;SDS011;60912;48.968;10.124;2022-09-23T04:48:34;8.93;;;4.38;;
71639;SDS011;60912;48.968;10.124;2022-09-23T04:51:06;7.18;;;4.18;;
71639;SDS011;60912;48.968;10.124;2022-09-23T04:53:41;7.33;;;4.30;;
71639;SDS011;60912;48.968;10.124;2022-09-23T04:56:15;7.72;;;3.97;;
71639;SDS011;60912;48.968;10.124;2022-09-23T04:58:41;8.27;;;4.43;;
71639;SDS011;60912;48.968;10.124;2022-09-23T05:01:11;7.53;;;4.18;;
71639;SDS011;60912;48.968;10.124;2022-09-23T05:03:40;7.60;;;4.43;;
71639;SDS011;60912;48.968;10.124;2022-09-23T05:06:07;7.07;;;3.97;;
71639;SDS011;60912;48.968;10.124;2022-09-23T05:08:33;7.72;;;4.18;;
71639;SDS011;60912;48.968;10.124;2022-09-23T05:11:00;7.38;;;4.68;;
71639;SDS011;60912;48.968;10.124;2022-09-23T05:13:28;7.78;;;4.32;;
71639;SDS011;60912;48.968;10.124;2022-09-23T05:16:12;6.73;;;3.80;;
71639;SDS011;60912;48.968;10.124;2022-09-23T05:18:39;6.63;;;3.85;;
71639;SDS011;60912;48.968;10.124;2022-09-23T05:21:07;8.38;;;4.10;;
71639;SDS011;60912;48.968;10.124;2022-09-23T05:23:34;5.43;;;3.42;;
71639;SDS011;60912;48.968;10.124;2022-09-23T05:26:01;7.93;;;3.40;;
71639;SDS011;60912;48.968;10.124;2022-09-23T05:28:29;7.18;;;3.92;;
71639;SDS011;60912;48.968;10.124;2022-09-23T05:31:09;6.88;;;3.50;;
71639;SDS011;60912;48.968;10.124;2022-09-23T05:33:41;6.13;;;3.20;;
71639;SDS011;60912;48.968;10.124;2022-09-23T05:36:08;6.38;;;3.33;;
71639;SDS011;60912;48.968;10.124;2022-09-23T05:38:33;9.57;;;3.90;;
71639;SDS011;60912;48.968;10.124;2022-09-23T05:41:01;6.38;;;3.83;;
71639;SDS011;60912;48.968;10.124;2022-09-23T05:43:28;6.07;;;3.55;;
71639;SDS011;60912;48.968;10.124;2022-09-23T05:46:10;7.77;;;3.60;;
71639;SDS011;60912;48.968;10.124;2022-09-23T05:48:37;7.93;;;3.58;;
71639;SDS011;60912;48.968;10.124;2022-09-23T05:51:04;6.53;;;3.30;;
71639;SDS011;60912;48.968;10.124;2022-09-23T05:53:37;4.80;;;3.17;;
71639;SDS011;60912;48.968;10.124;2022-09-23T05:56:03;7.55;;;3.47;;
71639;SDS011;60912;48.968;10.124;2022-09-23T05:58:29;7.07;;;4.07;;
71639;SDS011;60912;48.968;10.124;2022-09-23T06:00:55;7.45;;;4.40;;
71639;SDS011;60912;48.968;10.124;2022-09-23T06:03:21;6.63;;;4.30;;
71639;SDS011;60912;48.968;10.124;2022-09-23T06:05:47;7.97;;;4.20;;
71639;SDS011;60912;48.968;10.124;2022-09-23T06:08:12;5.40;;;3.70;;
71639;SDS011;60912;48.968;10.124;2022-09-23T06:10:38;5.97;;;4.30;;
71639;SDS011;60912;48.968;10.124;2022-09-23T06:13:05;6.45;;;3.90;;
71639;SDS011;60912;48.968;10.124;2022-09-23T06:15:32;8.53;;;3.70;;
71639;SDS011;60912;48.968;10.124;2022-09-23T06:17:58;8.65;;;3.97;;
71639;SDS011;60912;48.968;10.124;2022-09-23T06:20:23;10.38;;;4.90;;
71639;SDS011;60912;48.968;10.124;2022-09-23T06:22:49;9.20;;;4.20;;
71639;SDS011;60912;48.968;10.124;2022-09-23T06:25:18;9.20;;;3.70;;
71639;SDS011;60912;48.968;10.124;2022-09-23T06:27:50;5.85;;;3.97;;
71639;SDS011;60912;48.968;10.124;2022-09-23T06:30:18;10.93;;;4.40;;
71639;SDS011;60912;48.968;10.124;2022-09-23T06:32:47;6.00;;;3.55;;
71639;SDS011;60912;48.968;10.124;2022-09-23T06:35:16;12.30;;;5.00;;
71639;SDS011;60912;48.968;10.124;2022-09-23T06:37:43;11.45;;;4.40;;
71639;SDS011;60912;48.968;10.124;2022-09-23T06:40:08;8.70;;;4.13;;
71639;SDS011;60912;48.968;10.124;2022-09-23T06:42:34;8.43;;;4.18;;
71639;SDS011;60912;48.968;10.124;2022-09-23T06:44:59;10.17;;;4.20;;
71639;SDS011;60912;48.968;10.124;2022-09-23T06:47:26;14.15;;;4.82;;
71639;SDS011;60912;48.968;10.124;2022-09-23T06:49:51;9.03;;;4.70;;
71639;SDS011;60912;48.968;10.124;2022-09-23T06:52:16;14.20;;;4.90;;
71639;SDS011;60912;48.968;10.124;2022-09-23T06:54:44;11.50;;;5.57;;
71639;SDS011;60912;48.968;10.124;2022-09-23T06:57:10;14.33;;;4.80;;
71639;SDS011;60912;48.968;10.124;2022-09-23T06:59:35;14.02;;;4.80;;
71639;SDS011;60912;48.968;10.124;2022-09-23T07:02:00;11.50;;;4.87;;
71639;SDS011;60912;48.968;10.124;2022-09-23T07:04:26;10.43;;;5.10;;
71639;SDS011;60912;48.968;10.124;2022-09-23T07:06:52;8.48;;;5.00;;
71639;SDS011;60912;48.968;10.124;2022-09-23T07:09:18;12.70;;;5.20;;
71639;SDS011;60912;48.968;10.124;2022-09-23T07:11:47;10.60;;;5.32;;
71639;SDS011;60912;48.968;10.124;2022-09-23T07:14:12;10.73;;;5.43;;
71639;SDS011;60912;48.968;10.124;2022-09-23T07:16:38;9.88;;;5.45;;
71639;SDS011;60912;48.968;10.124;2022-09-23T07:19:04;12.63;;;5.63;;
71639;SDS011;60912;48.968;10.124;2022-09-23T07:21:29;8.13;;;5.45;;
71639;SDS011;60912;48.968;10.124;2022-09-23T07:23:55;11.43;;;6.30;;
71639;SDS011;60912;48.968;10.124;2022-09-23T07:26:22;10.75;;;6.07;;
71639;SDS011;60912;48.968;10.124;2022-09-23T07:28:51;12.38;;;5.82;;
71639;SDS011;60912;48.968;10.124;2022-09-23T07:31:18;8.82;;;5.50;;
71639;SDS011;60912;48.968;10.124;2022-09-23T07:33:43;13.43;;;5.57;;
71639;SDS011;60912;48.968;10.124;2022-09-23T07:36:10;9.93;;;5.73;;
71639;SDS011;60912;48.968;10.124;2022-09-23T07:38:37;7.72;;;4.97;;
71639;SDS011;60912;48.968;10.124;2022-09-23T07:41:04;8.27;;;4.83;;
71639;SDS011;60912;48.968;10.124;2022-09-23T07:43:32;7.97;;;4.85;;
71639;SDS011;60912;48.968;10.124;2022-09-23T07:46:01;9.37;;;5.10;;
71639;SDS011;60912;48.968;10.124;2022-09-23T07:48:29;8.70;;;4.60;;
71639;SDS011;60912;48.968;10.124;2022-09-23T07:50:55;7.25;;;4.75;;
71639;SDS011;60912;48.968;10.124;2022-09-23T07:53:23;7.70;;;4.82;;
71639;SDS011;60912;48.968;10.124;2022-09-23T07:55:52;8.60;;;4.77;;
71639;SDS011;60912;48.968;10.124;2022-09-23T07:58:21;8.23;;;5.43;;
71639;SDS011;60912;48.968;10.124;2022-09-23T08:00:47;8.17;;;5.07;;
71639;SDS011;60912;48.968;10.124;2022-09-23T08:03:18;9.10;;;5.00;;
71639;SDS011;60912;48.968;10.124;2022-09-23T08:05:43;8.52;;;5.43;;
71639;SDS011;60912;48.968;10.124;2022-09-23T08:08:10;8.13;;;5.40;;
71639;SDS011;60912;48.968;10.124;2022-09-23T08:10:38;8.15;;;4.90;;
71639;SDS011;60912;48.968;10.124;2022-09-23T08:13:03;9.27;;;4.90;;
71639;SDS011;60912;48.968;10.124;2022-09-23T08:15:29;9.17;;;5.20;;
71639;SDS011;60912;48.968;10.124;2022-09-23T08:17:57;9.02;;;4.82;;
71639;SDS011;60912;48.968;10.124;2022-09-23T08:20:24;8.90;;;5.13;;
71639;SDS011;60912;48.968;10.124;2022-09-23T08:23:08;9.40;;;4.70;;
71639;SDS011;60912;48.968;10.124;2022-09-23T08:25:35;8.13;;;5.10;;
71639;SDS011;60912;48.968;10.124;2022-09-23T08:28:00;7.10;;;4.80;;
71639;SDS011;60912;48.968;10.124;2022-09-23T08:30:26;8.35;;;4.68;;
71639;SDS011;60912;48.968;10.124;2022-09-23T08:32:51;7.40;;;4.37;;
71639;SDS011;60912;48.968;10.124;2022-09-23T08:35:16;6.43;;;4.80;;
71639;SDS011;60912;48.968;10.124;2022-09-23T08:37:43;6.25;;;4.53;;
71639;SDS011;60912;48.968;10.124;2022-09-23T08:40:09;5.93;;;4.23;;
71639;SDS011;60912;48.968;10.124;2022-09-23T08:42:34;8.38;;;3.95;;
71639;SDS011;60912;48.968;10.124;2022-09-23T08:45:04;5.68;;;3.33;;
71639;SDS011;60912;48.968;10.124;2022-09-23T08:48:10;5.73;;;3.03;;
71639;SDS011;60912;48.968;10.124;2022-09-23T08:50:35;4.72;;;3.10;;
71639;SDS011;60912;48.968;10.124;2022-09-23T08:53:14;6.00;;;2.67;;
71639;SDS011;60912;48.968;10.124;2022-09-23T08:55:50;4.43;;;2.72;;
71639;SDS011;60912;48.968;10.124;2022-09-23T09:06:28;4.00;;;2.47;;
71639;SDS011;60912;48.968;10.124;2022-09-23T09:08:59;4.63;;;2.58;;
71639;SDS011;60912;48.968;10.124;2022-09-23T09:11:28;5.07;;;2.63;;
71639;SDS011;60912;48.968;10.124;2022-09-23T09:14:02;4.27;;;2.63;;
71639;SDS011;60912;48.968;10.124;2022-09-23T09:17:11;4.75;;;2.45;;
71639;SDS011;60912;48.968;10.124;2022-09-23T09:22:30;5.60;;;2.65;;
71639;SDS011;60912;48.968;10.124;2022-09-23T09:25:11;5.68;;;2.60;;
71639;SDS011;60912;48.968;10.124;2022-09-23T09:27:43;6.07;;;2.73;;
71639;SDS011;60912;48.968;10.124;2022-09-23T09:30:12;3.92;;;2.50;;
71639;SDS011;60912;48.968;10.124;2022-09-23T09:32:47;5.13;;;2.50;;
71639;SDS011;60912;48.968;10.124;2022-09-23T09:35:41;3.65;;;2.20;;
71639;SDS011;60912;48.968;10.124;2022-09-23T09:38:09;3.33;;;2.22;;
71639;SDS011;60912;48.968;10.124;2022-09-23T09:40:34;3.90;;;2.50;;
71639;SDS011;60912;48.968;10.124;2022-09-23T09:43:10;4.35;;;2.35;;
71639;SDS011;60912;48.968;10.124;2022-09-23T09:48:30;3.53;;;2.33;;
71639;SDS011;60912;48.968;10.124;2022-09-23T09:51:21;5.85;;;2.35;;
71639;SDS011;60912;48.968;10.124;2022-09-23T09:53:48;3.75;;;2.33;;
71639;SDS011;60912;48.968;10.124;2022-09-23T09:56:22;3.67;;;2.10;;
71639;SDS011;60912;48.968;10.124;2022-09-23T09:59:07;4.05;;;2.30;;
71639;SDS011;60912;48.968;10.124;2022-09-23T10:01:37;4.93;;;2.10;;
71639;SDS011;60912;48.968;10.124;2022-09-23T10:04:04;6.43;;;2.25;;
71639;SDS011;60912;48.968;10.124;2022-09-23T10:06:43;5.32;;;2.35;;
71639;SDS011;60912;48.968;10.124;2022-09-23T10:09:31;4.18;;;2.60;;
71639;SDS011;60912;48.968;10.124;2022-09-23T10:14:34;3.95;;;2.40;;
71639;SDS011;60912;48.968;10.124;2022-09-23T10:17:03;4.82;;;2.30;;
71639;SDS011;60912;48.968;10.124;2022-09-23T10:19:42;3.93;;;2.07;;
71639;SDS011;60912;48.968;10.124;2022-09-23T10:22:20;5.85;;;2.47;;
71639;SDS011;60912;48.968;10.124;2022-09-23T10:24:49;4.63;;;2.33;;
71639;SDS011;60912;48.968;10.124;2022-09-23T10:27:28;4.68;;;2.20;;
71639;SDS011;60912;48.968;10.124;2022-09-23T10:29:56;5.18;;;2.20;;
71639;SDS011;60912;48.968;10.124;2022-09-23T10:32:31;5.17;;;2.30;;
71639;SDS011;60912;48.968;10.124;2022-09-23T10:46:04;3.53;;;1.77;;
71639;SDS011;60912;48.968;10.124;2022-09-23T10:51:57;5.43;;;2.03;;
71639;SDS011;60912;48.968;10.124;2022-09-23T11:08:33;9.15;;;2.20;;
71639;SDS011;60912;48.968;10.124;2022-09-23T11:25:51;3.75;;;2.30;;
71639;SDS011;60912;48.968;10.124;2022-09-23T11:39:01;5.28;;;2.30;;
71639;SDS011;60912;48.968;10.124;2022-09-23T11:41:36;4.80;;;2.10;;
71639;SDS011;60912;48.968;10.124;2022-09-23T11:44:09;6.70;;;2.20;;
71639;SDS011;60912;48.968;10.124;2022-09-23T11:46:44;5.45;;;2.20;;
71639;SDS011;60912;48.968;10.124;2022-09-23T11:49:30;3.90;;;2.22;;
71639;SDS011;60912;48.968;10.124;2022-09-23T11:52:14;5.47;;;2.60;;
71639;SDS011;60912;48.968;10.124;2022-09-23T11:55:33;5.63;;;2.00;;
71639;SDS011;60912;48.968;10.124;2022-09-23T12:00:18;4.35;;;2.20;;
71639;SDS011;60912;48.968;10.124;2022-09-23T12:06:18;6.03;;;2.25;;
71639;SDS011;60912;48.968;10.124;2022-09-23T12:27:33;4.27;;;2.03;;
71639;SDS011;60912;48.968;10.124;2022-09-23T12:30:12;3.70;;;1.90;;
71639;SDS011;60912;48.968;10.124;2022-09-23T12:32:41;4.35;;;2.20;;
71639;SDS011;60912;48.968;10.124;2022-09-23T12:35:18;3.63;;;2.10;;
71639;SDS011;60912;48.968;10.124;2022-09-23T12:37:46;3.15;;;1.52;;
71639;SDS011;60912;48.968;10.124;2022-09-23T12:43:30;4.35;;;1.52;;
71639;SDS011;60912;48.968;10.124;2022-09-23T12:48:56;3.40;;;1.88;;
71639;SDS011;60912;48.968;10.124;2022-09-23T12:51:33;3.75;;;1.90;;
71639;SDS011;60912;48.968;10.124;2022-09-23T13:01:40;3.45;;;1.75;;
71639;SDS011;60912;48.968;10.124;2022-09-23T13:04:14;3.97;;;1.60;;
71639;SDS011;60912;48.968;10.124;2022-09-23T13:07:09;4.07;;;1.80;;
71639;SDS011;60912;48.968;10.124;2022-09-23T13:09:40;4.68;;;2.10;;
71639;SDS011;60912;48.968;10.124;2022-09-23T13:12:22;4.43;;;1.88;;
71639;SDS011;60912;48.968;10.124;2022-09-23T13:14:52;4.45;;;1.55;;
71639;SDS011;60912;48.968;10.124;2022-09-23T13:17:23;3.30;;;1.63;;
71639;SDS011;60912;48.968;10.124;2022-09-23T13:19:58;2.90;;;1.70;;
71639;SDS011;60912;48.968;10.124;2022-09-23T13:23:01;4.05;;;1.80;;
71639;SDS011;60912;48.968;10.124;2022-09-23T13:25:38;4.40;;;1.85;;
71639;SDS011;60912;48.968;10.124;2022-09-23T13:28:12;6.40;;;1.95;;
71639;SDS011;60912;48.968;10.124;2022-09-23T13:30:48;4.78;;;1.80;;
71639;SDS011;60912;48.968;10.124;2022-09-23T13:33:26;4.17;;;1.90;;
71639;SDS011;60912;48.968;10.124;2022-09-23T13:35:58;3.88;;;1.60;;
71639;SDS011;60912;48.968;10.124;2022-09-23T13:38:29;4.53;;;1.75;;
71639;SDS011;60912;48.968;10.124;2022-09-23T13:46:15;4.20;;;1.80;;
71639;SDS011;60912;48.968;10.124;2022-09-23T13:48:43;5.03;;;2.00;;
71639;SDS011;60912;48.968;10.124;2022-09-23T13:51:11;4.50;;;2.00;;
71639;SDS011;60912;48.968;10.124;2022-09-23T13:53:50;4.00;;;1.80;;
71639;SDS011;60912;48.968;10.124;2022-09-23T13:56:20;5.40;;;1.85;;
71639;SDS011;60912;48.968;10.124;2022-09-23T13:58:46;6.83;;;2.00;;
71639;SDS011;60912;48.968;10.124;2022-09-23T14:01:29;4.55;;;1.92;;
71639;SDS011;60912;48.968;10.124;2022-09-23T14:04:00;4.63;;;1.92;;
71639;SDS011;60912;48.968;10.124;2022-09-23T14:06:29;5.75;;;1.95;;
71639;SDS011;60912;48.968;10.124;2022-09-23T14:08:55;5.32;;;1.73;;
71639;SDS011;60912;48.968;10.124;2022-09-23T14:11:29;3.70;;;1.70;;
71639;SDS011;60912;48.968;10.124;2022-09-23T14:13:57;5.32;;;1.85;;
71639;SDS011;60912;48.968;10.124;2022-09-23T14:16:29;4.82;;;1.85;;
71639;SDS011;60912;48.968;10.124;2022-09-23T14:18:56;3.87;;;1.87;;
71639;SDS011;60912;48.968;10.124;2022-09-23T14:21:36;3.28;;;1.60;;
71639;SDS011;60912;48.968;10.124;2022-09-23T14:24:28;6.32;;;1.70;;
71639;SDS011;60912;48.968;10.124;2022-09-23T14:26:51;4.18;;;2.03;;
71639;SDS011;60912;48.968;10.124;2022-09-23T14:29:24;3.47;;;1.70;;
71639;SDS011;60912;48.968;10.124;2022-09-23T14:31:53;5.28;;;2.03;;
71639;SDS011;60912;48.968;10.124;2022-09-23T14:40:25;3.28;;;1.73;;
71639;SDS011;60912;48.968;10.124;2022-09-23T14:45:51;4.47;;;2.00;;
71639;SDS011;60912;48.968;10.124;2022-09-23T14:50:55;3.95;;;1.90;;
71639;SDS011;60912;48.968;10.124;2022-09-23T14:53:30;2.70;;;1.70;;
71639;SDS011;60912;48.968;10.124;2022-09-23T14:58:39;6.03;;;1.80;;
71639;SDS011;60912;48.968;10.124;2022-09-23T15:03:55;4.78;;;1.98;;
71639;SDS011;60912;48.968;10.124;2022-09-23T15:06:21;3.60;;;1.80;;
71639;SDS011;60912;48.968;10.124;2022-09-23T15:08:48;4.30;;;1.80;;
71639;SDS011;60912;48.968;10.124;2022-09-23T15:11:15;4.65;;;1.83;;
71639;SDS011;60912;48.968;10.124;2022-09-23T15:13:41;3.30;;;1.92;;
71639;SDS011;60912;48.968;10.124;2022-09-23T15:16:11;3.80;;;1.80;;
71639;SDS011;60912;48.968;10.124;2022-09-23T15:18:38;4.75;;;2.10;;
71639;SDS011;60912;48.968;10.124;2022-09-23T15:21:13;5.25;;;2.17;;
71639;SDS011;60912;48.968;10.124;2022-09-23T15:29:11;5.87;;;1.90;;
71639;SDS011;60912;48.968;10.124;2022-09-23T15:31:36;5.03;;;1.80;;
71639;SDS011;60912;48.968;10.124;2022-09-23T15:34:02;3.60;;;1.83;;
71639;SDS011;60912;48.968;10.124;2022-09-23T15:36:29;3.70;;;2.00;;
71639;SDS011;60912;48.968;10.124;2022-09-23T15:38:55;4.47;;;2.03;;
71639;SDS011;60912;48.968;10.124;2022-09-23T15:41:25;5.95;;;1.80;;
71639;SDS011;60912;48.968;10.124;2022-09-23T15:43:51;4.10;;;2.00;;
71639;SDS011;60912;48.968;10.124;2022-09-23T15:46:17;6.90;;;1.90;;
71639;SDS011;60912;48.968;10.124;2022-09-23T15:49:08;4.60;;;2.10;;
71639;SDS011;60912;48.968;10.124;2022-09-23T15:51:39;5.50;;;1.85;;
71639;SDS011;60912;48.968;10.124;2022-09-23T15:54:16;5.68;;;2.35;;
71639;SDS011;60912;48.968;10.124;2022-09-23T15:56:41;4.07;;;2.10;;
71639;SDS011;60912;48.968;10.124;2022-09-23T15:59:07;8.35;;;2.33;;
71639;SDS011;60912;48.968;10.124;2022-09-23T16:01:34;4.57;;;2.13;;
71639;SDS011;60912;48.968;10.124;2022-09-23T16:04:00;3.63;;;1.95;;
71639;SDS011;60912;48.968;10.124;2022-09-23T16:06:27;4.90;;;2.28;;
71639;SDS011;60912;48.968;10.124;2022-09-23T16:08:56;4.68;;;2.08;;
71639;SDS011;60912;48.968;10.124;2022-09-23T16:11:25;4.33;;;2.20;;
71639;SDS011;60912;48.968;10.124;2022-09-23T16:13:56;5.10;;;2.25;;
71639;SDS011;60912;48.968;10.124;2022-09-23T16:16:22;6.80;;;2.70;;
71639;SDS011;60912;48.968;10.124;2022-09-23T16:18:48;5.30;;;2.87;;
71639;SDS011;60912;48.968;10.124;2022-09-23T16:21:15;9.38;;;3.40;;
71639;SDS011;60912;48.968;10.124;2022-09-23T16:23:43;6.43;;;3.30;;
71639;SDS011;60912;48.968;10.124;2022-09-23T16:26:18;5.78;;;3.40;;
71639;SDS011;60912;48.968;10.124;2022-09-23T16:28:46;6.60;;;3.20;;
71639;SDS011;60912;48.968;10.124;2022-09-23T16:31:13;7.15;;;3.70;;
71639;SDS011;60912;48.968;10.124;2022-09-23T16:33:40;7.43;;;3.72;;
71639;SDS011;60912;48.968;10.124;2022-09-23T16:36:08;6.32;;;3.15;;
71639;SDS011;60912;48.968;10.124;2022-09-23T16:38:40;5.38;;;2.63;;
71639;SDS011;60912;48.968;10.124;2022-09-23T16:41:06;5.13;;;2.60;;
71639;SDS011;60912;48.968;10.124;2022-09-23T16:43:33;5.32;;;2.70;;
71639;SDS011;60912;48.968;10.124;2022-09-23T16:46:12;3.97;;;2.40;;
71639;SDS011;60912;48.968;10.124;2022-09-23T16:48:40;5.82;;;2.35;;
71639;SDS011;60912;48.968;10.124;2022-09-23T16:51:07;5.90;;;2.50;;
71639;SDS011;60912;48.968;10.124;2022-09-23T16:53:37;6.93;;;2.80;;
71639;SDS011;60912;48.968;10.124;2022-09-23T16:56:09;5.55;;;2.67;;
71639;SDS011;60912;48.968;10.124;2022-09-23T16:58:37;8.80;;;3.13;;
71639;SDS011;60912;48.968;10.124;2022-09-23T17:01:04;6.75;;;3.42;;
71639;SDS011;60912;48.968;10.124;2022-09-23T17:03:49;6.77;;;3.80;;
71639;SDS011;60912;48.968;10.124;2022-09-23T17:06:15;7.00;;;3.75;;
71639;SDS011;60912;48.968;10.124;2022-09-23T17:08:44;8.15;;;3.75;;
71639;SDS011;60912;48.968;10.124;2022-09-23T17:11:12;8.80;;;4.20;;
71639;SDS011;60912;48.968;10.124;2022-09-23T17:13:38;9.75;;;3.40;;
71639;SDS011;60912;48.968;10.124;2022-09-23T17:16:05;6.72;;;3.20;;
71639;SDS011;60912;48.968;10.124;2022-09-23T17:18:31;8.77;;;3.50;;
71639;SDS011;60912;48.968;10.124;2022-09-23T17:20:57;5.87;;;3.60;;
71639;SDS011;60912;48.968;10.124;2022-09-23T17:23:24;7.05;;;3.70;;
71639;SDS011;60912;48.968;10.124;2022-09-23T17:25:50;6.38;;;3.75;;
71639;SDS011;60912;48.968;10.124;2022-09-23T17:28:16;5.60;;;3.30;;
71639;SDS011;60912;48.968;10.124;2022-09-23T17:30:42;6.40;;;3.95;;
71639;SDS011;60912;48.968;10.124;2022-09-23T17:33:07;6.33;;;4.23;;
71639;SDS011;60912;48.968;10.124;2022-09-23T17:35:33;6.80;;;4.40;;
71639;SDS011;60912;48.968;10.124;2022-09-23T17:37:59;7.32;;;4.30;;
71639;SDS011;60912;48.968;10.124;2022-09-23T17:40:24;7.43;;;4.63;;
71639;SDS011;60912;48.968;10.124;2022-09-23T17:42:50;7.60;;;5.03;;
71639;SDS011;60912;48.968;10.124;2022-09-23T17:45:17;9.20;;;4.43;;
71639;SDS011;60912;48.968;10.124;2022-09-23T17:47:42;14.85;;;5.32;;
71639;SDS011;60912;48.968;10.124;2022-09-23T17:50:08;13.53;;;6.13;;
71639;SDS011;60912;48.968;10.124;2022-09-23T17:52:34;13.70;;;5.50;;
71639;SDS011;60912;48.968;10.124;2022-09-23T17:54:59;11.50;;;5.33;;
71639;SDS011;60912;48.968;10.124;2022-09-23T17:57:24;10.13;;;4.97;;
71639;SDS011;60912;48.968;10.124;2022-09-23T17:59:50;11.10;;;5.47;;
71639;SDS011;60912;48.968;10.124;2022-09-23T18:02:17;11.82;;;6.22;;
71639;SDS011;60912;48.968;10.124;2022-09-23T18:04:44;10.38;;;5.50;;
71639;SDS011;60912;48.968;10.124;2022-09-23T18:07:10;10.83;;;4.97;;
71639;SDS011;60912;48.968;10.124;2022-09-23T18:09:35;12.32;;;5.30;;
71639;SDS011;60912;48.968;10.124;2022-09-23T18:12:01;29.57;;;18.67;;
71639;SDS011;60912;48.968;10.124;2022-09-23T18:14:26;19.73;;;13.33;;